createdAt,value
2018-01-08T00:00:10.014Z,1028.65
2018-01-08T00:01:11.886Z,1028.64
2018-01-08T00:02:13.764Z,1028.61
2018-01-08T00:03:27.983Z,1028.62
2018-01-08T00:04:29.866Z,1028.65
2018-01-08T00:05:31.745Z,1028.58
2018-01-08T00:06:33.637Z,1028.58
2018-01-08T00:07:35.461Z,1028.60
2018-01-08T00:08:37.283Z,1028.58
2018-01-08T00:09:39.164Z,1028.56
2018-01-08T00:10:41.033Z,1028.56
2018-01-08T00:11:42.900Z,1028.57
2018-01-08T00:12:57.030Z,1028.58
2018-01-08T00:13:58.891Z,1028.58
2018-01-08T00:15:00.757Z,1028.59
2018-01-08T00:16:02.645Z,1028.60
2018-01-08T00:17:04.443Z,1028.59
2018-01-08T00:18:06.269Z,1028.57
2018-01-08T00:19:08.156Z,1028.57
2018-01-08T00:20:09.994Z,1028.57
2018-01-08T00:21:11.802Z,1028.53
2018-01-08T00:22:25.948Z,1028.53
2018-01-08T00:23:27.812Z,1028.49
2018-01-08T00:24:29.674Z,1028.46
2018-01-08T00:25:31.542Z,1028.48
2018-01-08T00:26:33.362Z,1028.54
2018-01-08T00:27:35.161Z,1028.52
2018-01-08T00:28:37.019Z,1028.49
2018-01-08T00:29:38.885Z,1028.54
2018-01-08T00:30:40.771Z,1028.46
2018-01-08T00:31:54.930Z,1028.51
2018-01-08T00:32:56.812Z,1028.49
2018-01-08T00:33:58.676Z,1028.52
2018-01-08T00:35:00.538Z,1028.54
2018-01-08T00:36:02.346Z,1028.58
2018-01-08T00:37:04.162Z,1028.58
2018-01-08T00:38:06.033Z,1028.56
2018-01-08T00:39:07.914Z,1028.56
2018-01-08T00:40:09.805Z,1028.58
2018-01-08T00:41:23.983Z,1028.58
2018-01-08T00:42:25.844Z,1028.61
2018-01-08T00:43:27.730Z,1028.63
2018-01-08T00:44:29.614Z,1028.63
2018-01-08T00:45:31.419Z,1028.62
2018-01-08T00:46:33.238Z,1028.63
2018-01-08T00:47:35.107Z,1028.56
2018-01-08T00:48:36.991Z,1028.58
2018-01-08T00:49:38.851Z,1028.58
2018-01-08T00:50:53.089Z,1028.58
2018-01-08T00:51:54.895Z,1028.61
2018-01-08T00:52:56.781Z,1028.59
2018-01-08T00:53:58.640Z,1028.63
2018-01-08T00:55:00.439Z,1028.59
2018-01-08T00:56:02.238Z,1028.61
2018-01-08T00:57:04.127Z,1028.63
2018-01-08T00:58:06.014Z,1028.62
2018-01-08T00:59:07.878Z,1028.61
2018-01-08T01:00:22.013Z,1028.60
2018-01-08T01:01:23.900Z,1028.56
2018-01-08T01:02:25.763Z,1028.58
2018-01-08T01:03:27.633Z,1028.59
2018-01-08T01:04:29.455Z,1028.54
2018-01-08T01:05:31.272Z,1028.52
2018-01-08T01:06:33.137Z,1028.50
2018-01-08T01:07:35.003Z,1028.48
2018-01-08T01:08:36.867Z,1028.50
2018-01-08T01:09:51.020Z,1028.42
2018-01-08T01:10:52.879Z,1028.42
2018-01-08T01:11:54.744Z,1028.45
2018-01-08T01:12:56.612Z,1028.45
2018-01-08T01:13:58.433Z,1028.51
2018-01-08T01:15:00.230Z,1028.52
2018-01-08T01:16:02.115Z,1028.57
2018-01-08T01:17:03.979Z,1028.57
2018-01-08T01:18:05.866Z,1028.60
2018-01-08T01:19:20.052Z,1028.59
2018-01-08T01:20:21.935Z,1028.59
2018-01-08T01:21:23.802Z,1028.55
2018-01-08T01:22:25.689Z,1028.52
2018-01-08T01:23:27.488Z,1028.55
2018-01-08T01:24:29.289Z,1028.55
2018-01-08T01:25:31.149Z,1028.55
2018-01-08T01:26:33.034Z,1028.57
2018-01-08T01:27:34.901Z,1028.59
2018-01-08T01:28:49.056Z,1028.60
2018-01-08T01:29:50.949Z,1028.63
2018-01-08T01:30:52.812Z,1028.60
2018-01-08T01:31:54.672Z,1028.64
2018-01-08T01:32:56.472Z,1028.60
2018-01-08T01:33:58.297Z,1028.62
2018-01-08T01:35:00.161Z,1028.64
2018-01-08T01:36:02.046Z,1028.61
2018-01-08T01:37:03.936Z,1028.60
2018-01-08T01:38:18.067Z,1028.60
2018-01-08T01:39:19.930Z,1028.61
2018-01-08T01:40:21.791Z,1028.61
2018-01-08T01:41:23.659Z,1028.64
2018-01-08T01:42:25.475Z,1028.60
2018-01-08T01:43:27.274Z,1028.58
2018-01-08T01:44:29.161Z,1028.59
2018-01-08T01:45:31.022Z,1028.57
2018-01-08T01:46:32.884Z,1028.57
2018-01-08T01:47:47.018Z,1028.57
2018-01-08T01:48:48.877Z,1028.58
2018-01-08T01:49:50.743Z,1028.57
2018-01-08T01:50:52.600Z,1028.54
2018-01-08T01:51:54.406Z,1028.60
2018-01-08T01:52:56.226Z,1028.57
2018-01-08T01:53:58.082Z,1028.52
2018-01-08T01:54:59.949Z,1028.51
2018-01-08T01:56:01.817Z,1028.49
2018-01-08T01:57:16.022Z,1028.53
2018-01-08T01:58:17.911Z,1028.54
2018-01-08T01:59:19.797Z,1028.52
2018-01-08T02:00:21.661Z,1028.54
2018-01-08T02:01:23.455Z,1028.46
2018-01-08T02:02:25.251Z,1028.51
2018-01-08T02:03:27.116Z,1028.48
2018-01-08T02:04:28.999Z,1028.51
2018-01-08T02:05:30.876Z,1028.54
2018-01-08T02:06:45.011Z,1028.49
2018-01-08T02:07:46.898Z,1028.60
2018-01-08T02:08:48.782Z,1028.51
2018-01-08T02:09:50.645Z,1028.50
2018-01-08T02:10:52.471Z,1028.57
2018-01-08T02:11:54.278Z,1028.56
2018-01-08T02:12:56.145Z,1028.51
2018-01-08T02:13:58.028Z,1028.52
2018-01-08T02:14:59.905Z,1028.46
2018-01-08T02:16:14.028Z,1028.51
2018-01-08T02:17:15.893Z,1028.48
2018-01-08T02:18:17.751Z,1028.52
2018-01-08T02:19:19.613Z,1028.53
2018-01-08T02:20:21.404Z,1028.64
2018-01-08T02:21:23.201Z,1028.60
2018-01-08T02:22:25.065Z,1028.59
2018-01-08T02:23:26.890Z,1028.61
2018-01-08T02:24:28.703Z,1028.55
2018-01-08T02:25:42.837Z,1028.55
2018-01-08T02:26:44.716Z,1028.55
2018-01-08T02:27:46.586Z,1028.50
2018-01-08T02:28:48.439Z,1028.54
2018-01-08T02:29:50.239Z,1028.53
2018-01-08T02:30:52.056Z,1028.57
2018-01-08T02:31:53.937Z,1028.54
2018-01-08T02:32:55.798Z,1028.57
2018-01-08T02:33:57.680Z,1028.60
2018-01-08T02:35:11.879Z,1028.60
2018-01-08T02:36:13.763Z,1028.54
2018-01-08T02:37:15.629Z,1028.60
2018-01-08T02:38:17.512Z,1028.55
2018-01-08T02:39:19.310Z,1028.49
2018-01-08T02:40:21.102Z,1028.53
2018-01-08T02:41:22.961Z,1028.46
2018-01-08T02:42:24.873Z,1028.54
2018-01-08T02:43:26.710Z,1028.57
2018-01-08T02:44:40.836Z,1028.61
2018-01-08T02:45:42.720Z,1028.59
2018-01-08T02:46:44.600Z,1028.61
2018-01-08T02:47:46.459Z,1028.67
2018-01-08T02:48:48.255Z,1028.65
2018-01-08T02:49:50.052Z,1028.61
2018-01-08T02:50:51.919Z,1028.65
2018-01-08T02:51:53.770Z,1028.62
2018-01-08T02:52:55.624Z,1028.63
2018-01-08T02:54:09.755Z,1028.64
2018-01-08T02:55:11.618Z,1028.63
2018-01-08T02:56:13.502Z,1028.61
2018-01-08T02:57:15.363Z,1028.63
2018-01-08T02:58:17.162Z,1028.68
2018-01-08T02:59:18.954Z,1028.62
2018-01-08T03:00:20.813Z,1028.60
2018-01-08T03:01:22.693Z,1028.61
2018-01-08T03:02:24.558Z,1028.60
2018-01-08T03:03:38.687Z,1028.58
2018-01-08T03:04:40.571Z,1028.58
2018-01-08T03:05:42.429Z,1028.58
2018-01-08T03:06:44.290Z,1028.61
2018-01-08T03:07:46.088Z,1028.57
2018-01-08T03:08:47.879Z,1028.53
2018-01-08T03:09:49.739Z,1028.56
2018-01-08T03:10:51.834Z,1028.53
2018-01-08T03:11:53.741Z,1028.54
2018-01-08T03:13:07.869Z,1028.55
2018-01-08T03:14:09.713Z,1028.56
2018-01-08T03:15:11.590Z,1028.53
2018-01-08T03:16:13.472Z,1028.54
2018-01-08T03:17:15.261Z,1028.55
2018-01-08T03:18:17.058Z,1028.53
2018-01-08T03:19:18.913Z,1028.60
2018-01-08T03:20:20.778Z,1028.60
2018-01-08T03:21:22.663Z,1028.61
2018-01-08T03:22:36.816Z,1028.59
2018-01-08T03:23:38.677Z,1028.55
2018-01-08T03:24:40.535Z,1028.62
2018-01-08T03:25:42.415Z,1028.54
2018-01-08T03:26:44.206Z,1028.52
2018-01-08T03:27:46.001Z,1028.56
2018-01-08T03:28:47.864Z,1028.56
2018-01-08T03:29:49.708Z,1028.52
2018-01-08T03:30:51.612Z,1028.52
2018-01-08T03:32:05.764Z,1028.55
2018-01-08T03:33:07.646Z,1028.56
2018-01-08T03:34:09.531Z,1028.57
2018-01-08T03:35:11.412Z,1028.57
2018-01-08T03:36:13.232Z,1028.55
2018-01-08T03:37:15.049Z,1028.58
2018-01-08T03:38:16.929Z,1028.57
2018-01-08T03:39:18.789Z,1028.58
2018-01-08T03:40:20.667Z,1028.52
2018-01-08T03:41:35.062Z,1028.57
2018-01-08T03:42:36.954Z,1028.57
2018-01-08T03:43:38.813Z,1028.56
2018-01-08T03:44:40.679Z,1028.58
2018-01-08T03:45:42.472Z,1028.52
2018-01-08T03:46:44.288Z,1028.51
2018-01-08T03:47:46.166Z,1028.54
2018-01-08T03:48:48.028Z,1028.55
2018-01-08T03:49:49.909Z,1028.45
2018-01-08T03:51:04.039Z,1028.45
2018-01-08T03:52:05.923Z,1028.47
2018-01-08T03:53:07.783Z,1028.47
2018-01-08T03:54:09.640Z,1028.49
2018-01-08T03:55:11.439Z,1028.44
2018-01-08T03:56:13.235Z,1028.46
2018-01-08T03:57:15.090Z,1028.45
2018-01-08T03:58:16.947Z,1028.48
2018-01-08T03:59:18.802Z,1028.50
2018-01-08T04:00:32.974Z,1028.45
2018-01-08T04:01:34.833Z,1028.50
2018-01-08T04:02:36.687Z,1028.44
2018-01-08T04:03:38.550Z,1028.43
2018-01-08T04:04:40.364Z,1028.46
2018-01-08T04:05:42.163Z,1028.41
2018-01-08T04:06:44.022Z,1028.39
2018-01-08T04:07:45.881Z,1028.44
2018-01-08T04:08:47.743Z,1028.44
2018-01-08T04:10:01.892Z,1028.42
2018-01-08T04:11:03.753Z,1028.44
2018-01-08T04:12:05.628Z,1028.50
2018-01-08T04:13:07.497Z,1028.45
2018-01-08T04:14:09.313Z,1028.50
2018-01-08T04:15:11.127Z,1028.48
2018-01-08T04:16:12.991Z,1028.49
2018-01-08T04:17:14.870Z,1028.48
2018-01-08T04:18:16.729Z,1028.46
2018-01-08T04:19:30.859Z,1028.46
2018-01-08T04:20:32.717Z,1028.48
2018-01-08T04:21:34.576Z,1028.48
2018-01-08T04:22:36.432Z,1028.51
2018-01-08T04:23:38.224Z,1028.44
2018-01-08T04:24:40.034Z,1028.49
2018-01-08T04:25:41.880Z,1028.48
2018-01-08T04:26:43.763Z,1028.48
2018-01-08T04:27:45.650Z,1028.43
2018-01-08T04:28:59.845Z,1028.47
2018-01-08T04:30:01.702Z,1028.52
2018-01-08T04:31:03.559Z,1028.58
2018-01-08T04:32:05.421Z,1028.58
2018-01-08T04:33:07.243Z,1028.64
2018-01-08T04:34:09.055Z,1028.65
2018-01-08T04:35:10.911Z,1028.69
2018-01-08T04:36:12.773Z,1028.69
2018-01-08T04:37:14.634Z,1028.72
2018-01-08T04:38:28.765Z,1028.73
2018-01-08T04:39:30.649Z,1028.75
2018-01-08T04:40:32.529Z,1028.71
2018-01-08T04:41:34.393Z,1028.69
2018-01-08T04:42:36.211Z,1028.76
2018-01-08T04:43:38.027Z,1028.72
2018-01-08T04:44:39.883Z,1028.77
2018-01-08T04:45:41.744Z,1028.81
2018-01-08T04:46:43.626Z,1028.84
2018-01-08T04:47:57.758Z,1028.86
2018-01-08T04:48:59.638Z,1028.87
2018-01-08T04:50:01.497Z,1028.92
2018-01-08T04:51:03.362Z,1028.91
2018-01-08T04:52:05.153Z,1028.95
2018-01-08T04:53:06.951Z,1029.00
2018-01-08T04:54:08.806Z,1029.00
2018-01-08T04:55:10.669Z,1028.97
2018-01-08T04:56:12.557Z,1028.96
2018-01-08T04:57:26.708Z,1028.98
2018-01-08T04:58:28.571Z,1028.94
2018-01-08T04:59:30.447Z,1029.00
2018-01-08T05:00:32.327Z,1028.97
2018-01-08T05:01:34.128Z,1029.01
2018-01-08T05:02:35.922Z,1029.00
2018-01-08T05:03:37.779Z,1029.01
2018-01-08T05:04:39.641Z,1029.01
2018-01-08T05:05:41.522Z,1029.04
2018-01-08T05:06:55.697Z,1029.00
2018-01-08T05:07:57.556Z,1028.98
2018-01-08T05:08:59.411Z,1029.03
2018-01-08T05:10:01.273Z,1029.01
2018-01-08T05:11:03.086Z,1028.98
2018-01-08T05:12:04.886Z,1029.00
2018-01-08T05:13:06.766Z,1028.97
2018-01-08T05:14:08.650Z,1028.97
2018-01-08T05:15:10.530Z,1028.99
2018-01-08T05:16:24.709Z,1029.03
2018-01-08T05:17:26.635Z,1029.09
2018-01-08T05:18:28.452Z,1029.11
2018-01-08T05:19:30.313Z,1029.07
2018-01-08T05:20:32.130Z,1029.09
2018-01-08T05:21:33.922Z,1029.10
2018-01-08T05:22:35.797Z,1029.04
2018-01-08T05:23:37.657Z,1029.09
2018-01-08T05:24:39.537Z,1029.11
2018-01-08T05:25:53.671Z,1029.09
2018-01-08T05:26:55.528Z,1029.13
2018-01-08T05:27:57.388Z,1029.16
2018-01-08T05:28:59.277Z,1029.14
2018-01-08T05:30:01.040Z,1029.16
2018-01-08T05:31:02.857Z,1029.22
2018-01-08T05:32:04.736Z,1029.17
2018-01-08T05:33:06.597Z,1029.17
2018-01-08T05:34:08.479Z,1029.18
2018-01-08T05:35:22.604Z,1029.14
2018-01-08T05:36:24.466Z,1029.14
2018-01-08T05:37:26.347Z,1029.16
2018-01-08T05:38:28.217Z,1029.15
2018-01-08T05:39:30.031Z,1029.21
2018-01-08T05:40:31.820Z,1029.24
2018-01-08T05:41:33.679Z,1029.26
2018-01-08T05:42:35.541Z,1029.27
2018-01-08T05:43:37.425Z,1029.26
2018-01-08T05:44:51.609Z,1029.31
2018-01-08T05:45:53.493Z,1029.28
2018-01-08T05:46:55.376Z,1029.30
2018-01-08T05:47:57.203Z,1029.30
2018-01-08T05:48:59.013Z,1029.32
2018-01-08T05:50:00.822Z,1029.35
2018-01-08T05:51:02.690Z,1029.37
2018-01-08T05:52:04.569Z,1029.32
2018-01-08T05:53:06.432Z,1029.38
2018-01-08T05:54:20.583Z,1029.40
2018-01-08T05:55:22.463Z,1029.46
2018-01-08T05:56:24.317Z,1029.44
2018-01-08T05:57:26.178Z,1029.45
2018-01-08T05:58:27.979Z,1029.42
2018-01-08T05:59:29.808Z,1029.44
2018-01-08T06:00:31.677Z,1029.45
2018-01-08T06:01:33.532Z,1029.43
2018-01-08T06:02:35.388Z,1029.47
2018-01-08T06:03:49.519Z,1029.48
2018-01-08T06:04:51.404Z,1029.47
2018-01-08T06:05:53.311Z,1029.42
2018-01-08T06:06:55.141Z,1029.47
2018-01-08T06:07:56.934Z,1029.45
2018-01-08T06:08:58.728Z,1029.49
2018-01-08T06:10:00.586Z,1029.50
2018-01-08T06:11:02.444Z,1029.46
2018-01-08T06:12:04.313Z,1029.42
2018-01-08T06:13:18.440Z,1029.47
2018-01-08T06:14:20.292Z,1029.47
2018-01-08T06:15:22.156Z,1029.46
2018-01-08T06:16:24.036Z,1029.50
2018-01-08T06:17:25.849Z,1029.41
2018-01-08T06:18:27.644Z,1029.46
2018-01-08T06:19:29.498Z,1029.48
2018-01-08T06:20:31.358Z,1029.51
2018-01-08T06:21:33.216Z,1029.49
2018-01-08T06:22:47.348Z,1029.53
2018-01-08T06:23:49.232Z,1029.52
2018-01-08T06:24:51.115Z,1029.55
2018-01-08T06:25:52.969Z,1029.53
2018-01-08T06:26:54.768Z,1029.55
2018-01-08T06:27:56.558Z,1029.56
2018-01-08T06:28:58.380Z,1029.57
2018-01-08T06:30:00.241Z,1029.58
2018-01-08T06:31:02.101Z,1029.57
2018-01-08T06:32:16.232Z,1029.56
2018-01-08T06:33:18.093Z,1029.58
2018-01-08T06:34:19.972Z,1029.58
2018-01-08T06:35:21.831Z,1029.59
2018-01-08T06:36:23.628Z,1029.61
2018-01-08T06:37:25.421Z,1029.60
2018-01-08T06:38:27.288Z,1029.62
2018-01-08T06:39:29.164Z,1029.67
2018-01-08T06:40:31.027Z,1029.65
2018-01-08T06:41:45.158Z,1029.66
2018-01-08T06:42:47.045Z,1029.65
2018-01-08T06:43:48.924Z,1029.64
2018-01-08T06:44:50.786Z,1029.64
2018-01-08T06:45:52.603Z,1029.65
2018-01-08T06:46:54.417Z,1029.64
2018-01-08T06:47:56.278Z,1029.67
2018-01-08T06:48:58.163Z,1029.66
2018-01-08T06:50:00.030Z,1029.65
2018-01-08T06:51:14.231Z,1029.63
2018-01-08T06:52:16.085Z,1029.60
2018-01-08T06:53:17.942Z,1029.60
2018-01-08T06:54:19.802Z,1029.59
2018-01-08T06:55:21.604Z,1029.58
2018-01-08T06:56:23.400Z,1029.61
2018-01-08T06:57:25.255Z,1029.67
2018-01-08T06:58:27.122Z,1029.63
2018-01-08T06:59:29.003Z,1029.61
2018-01-08T07:00:43.134Z,1029.62
2018-01-08T07:01:45.019Z,1029.66
2018-01-08T07:02:46.874Z,1029.66
2018-01-08T07:03:48.742Z,1029.69
2018-01-08T07:04:50.565Z,1029.69
2018-01-08T07:05:52.382Z,1029.70
2018-01-08T07:06:54.266Z,1029.68
2018-01-08T07:07:56.149Z,1029.69
2018-01-08T07:08:58.059Z,1029.69
2018-01-08T07:10:12.223Z,1029.71
2018-01-08T07:11:14.089Z,1029.71
2018-01-08T07:12:15.968Z,1029.76
2018-01-08T07:13:17.836Z,1029.78
2018-01-08T07:14:19.653Z,1029.76
2018-01-08T07:15:21.452Z,1029.77
2018-01-08T07:16:23.385Z,1029.77
2018-01-08T07:17:25.218Z,1029.75
2018-01-08T07:18:27.102Z,1029.74
2018-01-08T07:19:41.259Z,1029.74
2018-01-08T07:20:43.119Z,1029.79
2018-01-08T07:21:45.007Z,1029.74
2018-01-08T07:22:46.888Z,1029.76
2018-01-08T07:23:48.691Z,1029.75
2018-01-08T07:24:50.512Z,1029.73
2018-01-08T07:25:52.391Z,1029.75
2018-01-08T07:26:54.258Z,1029.74
2018-01-08T07:27:56.143Z,1029.75
2018-01-08T07:29:10.270Z,1029.80
2018-01-08T07:30:12.131Z,1029.81
2018-01-08T07:31:13.996Z,1029.82
2018-01-08T07:32:15.859Z,1029.81
2018-01-08T07:33:17.679Z,1029.83
2018-01-08T07:34:19.496Z,1029.86
2018-01-08T07:35:21.364Z,1029.80
2018-01-08T07:36:23.246Z,1029.83
2018-01-08T07:37:25.115Z,1029.81
2018-01-08T07:38:39.272Z,1029.89
2018-01-08T07:39:41.156Z,1029.93
2018-01-08T07:40:43.017Z,1029.91
2018-01-08T07:41:44.885Z,1029.89
2018-01-08T07:42:46.709Z,1029.91
2018-01-08T07:43:48.530Z,1029.94
2018-01-08T07:44:50.410Z,1029.88
2018-01-08T07:45:52.271Z,1029.93
2018-01-08T07:46:54.139Z,1029.92
2018-01-08T07:48:13.301Z,1029.93
2018-01-08T07:49:15.192Z,1029.98
2018-01-08T07:50:17.072Z,1029.97
2018-01-08T07:51:18.935Z,1029.94
2018-01-08T07:52:20.754Z,1029.93
2018-01-08T07:53:22.556Z,1029.93
2018-01-08T07:54:24.444Z,1029.91
2018-01-08T07:55:26.325Z,1030.00
2018-01-08T07:56:28.217Z,1029.97
2018-01-08T07:57:42.347Z,1029.97
2018-01-08T07:58:44.233Z,1029.97
2018-01-08T07:59:46.115Z,1029.96
2018-01-08T08:00:47.978Z,1029.97
2018-01-08T08:01:49.797Z,1029.99
2018-01-08T08:02:51.596Z,1029.97
2018-01-08T08:03:53.459Z,1029.97
2018-01-08T08:04:55.320Z,1029.94
2018-01-08T08:05:57.185Z,1029.99
2018-01-08T08:07:11.344Z,1029.96
2018-01-08T08:08:13.203Z,1029.96
2018-01-08T08:09:15.088Z,1029.97
2018-01-08T08:10:16.980Z,1029.93
2018-01-08T08:11:18.801Z,1029.95
2018-01-08T08:12:20.623Z,1029.98
2018-01-08T08:13:22.506Z,1029.99
2018-01-08T08:14:24.369Z,1029.95
2018-01-08T08:15:26.232Z,1029.98
2018-01-08T08:16:40.348Z,1029.97
2018-01-08T08:17:42.149Z,1029.94
2018-01-08T08:18:44.036Z,1029.95
2018-01-08T08:19:45.926Z,1029.99
2018-01-08T08:20:47.812Z,1029.94
2018-01-08T08:21:49.607Z,1029.96
2018-01-08T08:22:51.409Z,1029.95
2018-01-08T08:23:53.270Z,1029.99
2018-01-08T08:24:55.133Z,1030.02
2018-01-08T08:26:09.336Z,1030.02
2018-01-08T08:27:11.280Z,1030.04
2018-01-08T08:28:13.181Z,1030.01
2018-01-08T08:29:15.069Z,1030.04
2018-01-08T08:30:16.869Z,1030.04
2018-01-08T08:31:18.693Z,1030.05
2018-01-08T08:32:20.560Z,1030.07
2018-01-08T08:33:22.418Z,1030.05
2018-01-08T08:34:24.283Z,1030.12
2018-01-08T08:35:38.416Z,1030.16
2018-01-08T08:36:40.281Z,1030.12
2018-01-08T08:37:42.164Z,1030.14
2018-01-08T08:38:44.032Z,1030.15
2018-01-08T08:39:45.859Z,1030.14
2018-01-08T08:40:47.683Z,1030.17
2018-01-08T08:41:49.568Z,1030.19
2018-01-08T08:42:51.450Z,1030.13
2018-01-08T08:43:53.310Z,1030.21
2018-01-08T08:45:07.496Z,1030.22
2018-01-08T08:46:09.356Z,1030.19
2018-01-08T08:47:11.227Z,1030.21
2018-01-08T08:48:13.117Z,1030.22
2018-01-08T08:49:14.934Z,1030.17
2018-01-08T08:50:16.738Z,1030.16
2018-01-08T08:51:18.622Z,1030.17
2018-01-08T08:52:20.511Z,1030.17
2018-01-08T08:53:22.400Z,1030.16
2018-01-08T08:54:36.549Z,1030.18
2018-01-08T08:55:38.415Z,1030.16
2018-01-08T08:56:40.268Z,1030.21
2018-01-08T08:57:42.132Z,1030.19
2018-01-08T08:58:43.934Z,1030.15
2018-01-08T08:59:45.732Z,1030.18
2018-01-08T09:00:47.595Z,1030.17
2018-01-08T09:01:49.459Z,1030.16
2018-01-08T09:02:51.324Z,1030.15
2018-01-08T09:04:05.473Z,1030.16
2018-01-08T09:05:07.339Z,1030.14
2018-01-08T09:06:09.195Z,1030.12
2018-01-08T09:07:11.057Z,1030.16
2018-01-08T09:08:12.863Z,1030.18
2018-01-08T09:09:14.662Z,1030.10
2018-01-08T09:10:16.553Z,1030.12
2018-01-08T09:11:18.440Z,1030.17
2018-01-08T09:12:20.323Z,1030.14
2018-01-08T09:13:34.454Z,1030.15
2018-01-08T09:14:36.362Z,1030.15
2018-01-08T09:15:38.174Z,1030.16
2018-01-08T09:16:40.042Z,1030.13
2018-01-08T09:17:41.839Z,1030.11
2018-01-08T09:18:43.639Z,1030.10
2018-01-08T09:19:45.504Z,1030.06
2018-01-08T09:20:47.386Z,1030.10
2018-01-08T09:21:49.253Z,1030.10
2018-01-08T09:23:03.394Z,1030.10
2018-01-08T09:24:05.275Z,1030.09
2018-01-08T09:25:07.160Z,1030.05
2018-01-08T09:26:09.020Z,1030.06
2018-01-08T09:27:10.824Z,1030.05
2018-01-08T09:28:12.629Z,1030.03
2018-01-08T09:29:14.510Z,1030.08
2018-01-08T09:30:16.381Z,1030.00
2018-01-08T09:31:18.273Z,1029.99
2018-01-08T09:32:32.404Z,1030.09
2018-01-08T09:33:34.295Z,1030.01
2018-01-08T09:34:36.131Z,1030.05
2018-01-08T09:35:37.999Z,1030.05
2018-01-08T09:36:39.800Z,1030.09
2018-01-08T09:37:41.597Z,1030.04
2018-01-08T09:38:43.483Z,1030.03
2018-01-08T09:39:45.370Z,1030.04
2018-01-08T09:40:47.262Z,1030.01
2018-01-08T09:42:01.431Z,1029.99
2018-01-08T09:43:03.292Z,1029.99
2018-01-08T09:44:05.193Z,1030.01
2018-01-08T09:45:07.017Z,1029.98
2018-01-08T09:46:08.863Z,1029.93
2018-01-08T09:47:10.653Z,1029.97
2018-01-08T09:48:12.504Z,1029.95
2018-01-08T09:49:14.390Z,1029.96
2018-01-08T09:50:16.256Z,1029.96
2018-01-08T09:51:30.414Z,1029.93
2018-01-08T09:52:32.271Z,1029.99
2018-01-08T09:53:34.132Z,1029.97
2018-01-08T09:54:35.993Z,1029.98
2018-01-08T09:55:37.800Z,1029.96
2018-01-08T09:56:39.619Z,1029.96
2018-01-08T09:57:41.479Z,1029.93
2018-01-08T09:58:43.376Z,1029.92
2018-01-08T09:59:45.250Z,1029.93
2018-01-08T10:00:59.362Z,1029.92
2018-01-08T10:02:01.233Z,1029.92
2018-01-08T10:03:03.117Z,1029.90
2018-01-08T10:04:04.983Z,1029.91
2018-01-08T10:05:06.786Z,1029.92
2018-01-08T10:06:08.610Z,1029.94
2018-01-08T10:07:10.477Z,1029.93
2018-01-08T10:08:12.365Z,1029.95
2018-01-08T10:09:14.231Z,1029.93
2018-01-08T10:10:28.365Z,1029.97
2018-01-08T10:11:30.255Z,1029.91
2018-01-08T10:12:32.146Z,1029.91
2018-01-08T10:13:34.035Z,1029.92
2018-01-08T10:14:35.861Z,1029.89
2018-01-08T10:15:37.660Z,1029.91
2018-01-08T10:16:39.521Z,1029.87
2018-01-08T10:17:41.400Z,1029.85
2018-01-08T10:18:43.258Z,1029.83
2018-01-08T10:19:57.387Z,1029.82
2018-01-08T10:20:59.257Z,1029.82
2018-01-08T10:22:01.145Z,1029.86
2018-01-08T10:23:03.028Z,1029.80
2018-01-08T10:24:04.831Z,1029.82
2018-01-08T10:25:06.637Z,1029.82
2018-01-08T10:26:08.525Z,1029.81
2018-01-08T10:27:10.412Z,1029.80
2018-01-08T10:28:12.283Z,1029.82
2018-01-08T10:29:26.435Z,1029.82
2018-01-08T10:30:28.303Z,1029.80
2018-01-08T10:31:30.196Z,1029.76
2018-01-08T10:32:32.086Z,1029.76
2018-01-08T10:33:33.904Z,1029.76
2018-01-08T10:34:35.706Z,1029.74
2018-01-08T10:35:37.589Z,1029.75
2018-01-08T10:36:39.454Z,1029.74
2018-01-08T10:37:41.325Z,1029.72
2018-01-08T10:38:55.460Z,1029.73
2018-01-08T10:39:57.326Z,1029.72
2018-01-08T10:40:59.213Z,1029.72
2018-01-08T10:42:01.102Z,1029.70
2018-01-08T10:43:02.909Z,1029.74
2018-01-08T10:44:04.705Z,1029.74
2018-01-08T10:45:06.568Z,1029.74
2018-01-08T10:46:08.439Z,1029.73
2018-01-08T10:47:10.324Z,1029.76
2018-01-08T10:48:24.509Z,1029.75
2018-01-08T10:49:26.348Z,1029.73
2018-01-08T10:50:28.233Z,1029.73
2018-01-08T10:51:30.104Z,1029.75
2018-01-08T10:52:31.941Z,1029.74
2018-01-08T10:53:33.751Z,1029.73
2018-01-08T10:54:35.615Z,1029.74
2018-01-08T10:55:37.485Z,1029.70
2018-01-08T10:56:39.376Z,1029.69
2018-01-08T10:57:53.510Z,1029.69
2018-01-08T10:58:55.372Z,1029.72
2018-01-08T10:59:57.236Z,1029.69
2018-01-08T11:00:59.100Z,1029.66
2018-01-08T11:02:00.910Z,1029.63
2018-01-08T11:03:02.735Z,1029.64
2018-01-08T11:04:04.600Z,1029.62
2018-01-08T11:05:06.484Z,1029.58
2018-01-08T11:06:08.355Z,1029.60
2018-01-08T11:07:22.513Z,1029.60
2018-01-08T11:08:24.406Z,1029.59
2018-01-08T11:09:26.296Z,1029.56
2018-01-08T11:10:28.180Z,1029.56
2018-01-08T11:11:29.986Z,1029.49
2018-01-08T11:12:31.813Z,1029.50
2018-01-08T11:13:33.730Z,1029.43
2018-01-08T11:14:35.565Z,1029.44
2018-01-08T11:15:37.434Z,1029.43
2018-01-08T11:16:51.580Z,1029.41
2018-01-08T11:17:53.523Z,1029.38
2018-01-08T11:18:55.345Z,1029.36
2018-01-08T11:19:57.214Z,1029.40
2018-01-08T11:20:59.042Z,1029.39
2018-01-08T11:22:00.866Z,1029.40
2018-01-08T11:23:02.757Z,1029.43
2018-01-08T11:24:04.648Z,1029.41
2018-01-08T11:25:06.534Z,1029.40
2018-01-08T11:26:20.675Z,1029.39
2018-01-08T11:27:22.535Z,1029.37
2018-01-08T11:28:24.396Z,1029.37
2018-01-08T11:29:26.263Z,1029.34
2018-01-08T11:30:28.071Z,1029.34
2018-01-08T11:31:29.876Z,1029.37
2018-01-08T11:32:31.768Z,1029.26
2018-01-08T11:33:33.650Z,1029.30
2018-01-08T11:34:35.577Z,1029.25
2018-01-08T11:35:49.674Z,1029.26
2018-01-08T11:36:51.562Z,1029.23
2018-01-08T11:37:53.433Z,1029.20
2018-01-08T11:38:55.291Z,1029.20
2018-01-08T11:39:57.099Z,1029.14
2018-01-08T11:40:58.903Z,1029.17
2018-01-08T11:42:00.786Z,1029.14
2018-01-08T11:43:02.653Z,1029.15
2018-01-08T11:44:04.524Z,1029.11
2018-01-08T11:45:18.679Z,1029.15
2018-01-08T11:46:20.547Z,1029.07
2018-01-08T11:47:22.437Z,1029.08
2018-01-08T11:48:24.302Z,1029.06
2018-01-08T11:49:26.107Z,1029.06
2018-01-08T11:50:27.934Z,1029.08
2018-01-08T11:51:29.795Z,1029.07
2018-01-08T11:52:31.664Z,1029.06
2018-01-08T11:53:33.553Z,1029.04
2018-01-08T11:54:47.686Z,1029.00
2018-01-08T11:55:49.554Z,1028.98
2018-01-08T11:56:51.415Z,1029.05
2018-01-08T11:57:53.285Z,1029.04
2018-01-08T11:58:55.113Z,1029.03
2018-01-08T11:59:56.935Z,1029.05
2018-01-08T12:00:58.801Z,1029.05
2018-01-08T12:02:00.691Z,1029.02
2018-01-08T12:03:02.561Z,1029.00
2018-01-08T12:04:16.717Z,1029.03
2018-01-08T12:05:18.585Z,1029.01
2018-01-08T12:06:20.445Z,1029.03
2018-01-08T12:07:22.318Z,1029.02
2018-01-08T12:08:24.116Z,1028.98
2018-01-08T12:09:25.920Z,1028.99
2018-01-08T12:10:27.806Z,1029.00
2018-01-08T12:11:29.676Z,1029.03
2018-01-08T12:12:31.569Z,1029.03
2018-01-08T12:13:45.731Z,1029.05
2018-01-08T12:14:47.620Z,1029.09
2018-01-08T12:15:49.514Z,1029.11
2018-01-08T12:16:51.402Z,1029.14
2018-01-08T12:17:53.226Z,1029.15
2018-01-08T12:18:55.030Z,1029.12
2018-01-08T12:19:56.895Z,1029.15
2018-01-08T12:20:58.766Z,1029.15
2018-01-08T12:22:00.658Z,1029.09
2018-01-08T12:23:14.868Z,1029.08
2018-01-08T12:24:16.766Z,1029.10
2018-01-08T12:25:18.624Z,1029.07
2018-01-08T12:26:20.495Z,1029.09
2018-01-08T12:27:22.314Z,1029.09
2018-01-08T12:28:24.122Z,1029.09
2018-01-08T12:29:26.006Z,1029.17
2018-01-08T12:30:28.006Z,1029.08
2018-01-08T12:31:29.907Z,1029.11
2018-01-08T12:32:44.080Z,1029.09
2018-01-08T12:33:45.967Z,1029.10
2018-01-08T12:34:47.854Z,1029.08
2018-01-08T12:35:49.740Z,1029.07
2018-01-08T12:36:51.543Z,1029.08
2018-01-08T12:37:53.366Z,1029.06
2018-01-08T12:38:55.237Z,1029.05
2018-01-08T12:39:57.123Z,1029.04
2018-01-08T12:40:58.988Z,1029.02
2018-01-08T12:42:13.137Z,1028.99
2018-01-08T12:43:15.028Z,1028.97
2018-01-08T12:44:16.915Z,1028.93